Time;durP1;ratioP1;P1;durP2;ratioP2;P2;SDS_P1;SDS_P2;PMS_P1;PMS_P2;Temp;Humidity;BMP_temperature;BMP_pressure;BME280_temperature;BME280_humidity;BME280_pressure;Samples;Min_cycle;Max_cycle;Signal;HPM_P1;HPM_P2
2023/08/23 00:00:30;;;;;;;3.78;2.40;;;23.20;99.90;;;;;;5065357;28;20716;-26
2023/08/23 00:02:59;;;;;;;4.18;2.33;;;23.10;99.90;;;;;;5047116;28;20227;-26
2023/08/23 00:05:27;;;;;;;5.65;2.60;;;23.10;99.90;;;;;;5065258;28;20572;-26
2023/08/23 00:07:54;;;;;;;5.85;2.30;;;23.10;99.90;;;;;;5014504;28;20214;-26
2023/08/23 00:10:26;;;;;;;5.60;2.45;;;23.00;99.90;;;;;;5065401;28;20278;-26
2023/08/23 00:12:56;;;;;;;4.38;2.30;;;23.00;99.90;;;;;;5064054;28;20701;-26
2023/08/23 00:15:23;;;;;;;4.30;2.03;;;23.00;99.90;;;;;;5065410;28;20215;-25
2023/08/23 00:17:53;;;;;;;6.25;2.60;;;23.00;99.90;;;;;;5065176;28;20272;-26
2023/08/23 00:20:22;;;;;;;2.78;2.20;;;22.90;99.90;;;;;;5047459;28;20210;-26
2023/08/23 00:22:52;;;;;;;3.72;2.25;;;22.90;99.90;;;;;;5047717;28;20219;-26
2023/08/23 00:25:21;;;;;;;2.92;2.33;;;22.80;99.90;;;;;;5047251;28;20303;-26
2023/08/23 00:27:49;;;;;;;5.22;2.75;;;22.80;99.90;;;;;;5065436;28;20184;-25
2023/08/23 00:30:33;;;;;;;3.47;2.47;;;22.70;99.90;;;;;;5049987;28;20242;-25
2023/08/23 00:33:05;;;;;;;4.28;2.67;;;22.70;99.90;;;;;;5047988;28;20196;-26
2023/08/23 00:35:34;;;;;;;4.65;2.25;;;22.60;99.90;;;;;;5064857;28;20212;-26
2023/08/23 00:38:04;;;;;;;4.20;2.30;;;22.60;99.90;;;;;;5065015;28;20227;-26
2023/08/23 00:40:36;;;;;;;4.45;2.65;;;22.50;99.90;;;;;;5064717;28;20238;-26
2023/08/23 00:43:07;;;;;;;4.07;2.50;;;22.50;99.90;;;;;;5065106;28;20334;-25
2023/08/23 00:45:41;;;;;;;3.83;2.22;;;22.40;99.90;;;;;;5065236;28;20231;-26
2023/08/23 00:48:11;;;;;;;3.72;2.15;;;22.40;99.90;;;;;;5047521;28;20242;-25
2023/08/23 00:50:41;;;;;;;7.88;2.58;;;22.30;99.90;;;;;;5065716;28;20654;-25
2023/08/23 00:53:09;;;;;;;4.65;2.20;;;22.30;99.90;;;;;;5050508;28;20250;-26
2023/08/23 00:55:36;;;;;;;3.80;2.55;;;22.30;99.90;;;;;;5050424;28;20218;-26
2023/08/23 00:58:07;;;;;;;3.90;2.55;;;22.30;99.90;;;;;;5032583;28;20616;-25
2023/08/23 01:00:36;;;;;;;3.67;2.40;;;22.30;99.90;;;;;;5049901;28;20261;-25
2023/08/23 01:03:06;;;;;;;5.53;2.60;;;22.20;99.90;;;;;;5068128;28;20309;-25
2023/08/23 01:05:56;;;;;;;3.33;2.45;;;22.20;99.90;;;;;;5067732;28;20626;-25
2023/08/23 01:08:47;;;;;;;5.30;3.00;;;22.10;99.90;;;;;;5044292;28;20200;-25
2023/08/23 01:11:44;;;;;;;6.95;3.25;;;22.10;99.90;;;;;;5045131;28;20203;-25
2023/08/23 01:14:44;;;;;;;4.90;3.00;;;22.10;99.90;;;;;;5042253;28;20227;-25
2023/08/23 01:17:15;;;;;;;4.68;2.67;;;22.00;99.90;;;;;;5060216;28;20286;-25
2023/08/23 01:19:47;;;;;;;3.88;2.92;;;21.90;99.90;;;;;;5062876;28;20220;-25
2023/08/23 01:22:18;;;;;;;3.60;2.50;;;21.90;99.90;;;;;;5068037;28;20410;-25
2023/08/23 01:24:56;;;;;;;3.83;2.45;;;21.90;99.90;;;;;;5067978;28;20653;-25
2023/08/23 01:27:23;;;;;;;6.05;2.65;;;21.90;99.90;;;;;;5068953;28;20627;-25
2023/08/23 01:29:53;;;;;;;4.15;2.53;;;21.90;99.90;;;;;;5050074;28;20934;-25
2023/08/23 01:32:49;;;;;;;5.75;2.90;;;21.90;99.90;;;;;;5068315;28;20584;-25
2023/08/23 01:35:27;;;;;;;4.43;2.53;;;21.90;99.90;;;;;;5067778;28;20295;-25
2023/08/23 01:38:04;;;;;;;3.03;2.45;;;21.90;99.90;;;;;;5066258;28;20225;-25
2023/08/23 01:40:35;;;;;;;4.00;2.78;;;21.90;99.90;;;;;;5034022;28;20727;-25
2023/08/23 01:43:07;;;;;;;3.42;2.40;;;21.80;99.90;;;;;;5067667;28;20240;-25
2023/08/23 01:45:36;;;;;;;4.13;2.67;;;21.80;99.90;;;;;;5049366;28;20731;-25
2023/08/23 01:48:06;;;;;;;4.65;2.33;;;21.80;99.90;;;;;;5049967;28;20231;-25
2023/08/23 01:50:33;;;;;;;3.13;2.47;;;21.80;99.90;;;;;;5049393;28;20635;-25
2023/08/23 01:53:05;;;;;;;4.00;2.10;;;21.80;99.90;;;;;;5049891;28;20203;-25
2023/08/23 01:55:32;;;;;;;2.30;2.10;;;21.70;99.90;;;;;;5049430;28;20280;-24
2023/08/23 01:58:00;;;;;;;4.20;2.20;;;21.70;99.90;;;;;;5067813;28;20202;-24
2023/08/23 02:00:29;;;;;;;3.72;1.92;;;21.70;99.90;;;;;;5067681;28;20210;-25
2023/08/23 02:02:59;;;;;;;2.53;2.33;;;21.60;99.90;;;;;;5049833;28;20228;-25
2023/08/23 02:05:29;;;;;;;3.17;2.20;;;21.60;99.90;;;;;;5049353;28;20207;-24
2023/08/23 02:07:59;;;;;;;4.10;2.42;;;21.60;99.90;;;;;;5065805;28;20245;-24
2023/08/23 02:10:29;;;;;;;3.03;2.35;;;21.60;99.90;;;;;;5066994;28;20708;-25
2023/08/23 02:12:56;;;;;;;3.88;2.20;;;21.50;99.90;;;;;;5048934;28;20215;-24
2023/08/23 02:15:23;;;;;;;3.90;2.10;;;21.50;99.90;;;;;;5067033;28;20200;-25
2023/08/23 02:17:55;;;;;;;2.70;1.98;;;21.50;99.90;;;;;;5067705;28;20210;-24
2023/08/23 02:20:22;;;;;;;4.97;2.00;;;21.50;99.90;;;;;;5067028;28;20196;-24
2023/08/23 02:22:52;;;;;;;3.75;2.13;;;21.50;99.90;;;;;;5067197;28;20311;-25
2023/08/23 02:25:22;;;;;;;2.40;1.92;;;21.40;99.90;;;;;;5066976;28;20585;-25
2023/08/23 02:27:49;;;;;;;3.35;2.22;;;21.40;99.90;;;;;;5066628;28;20254;-25
2023/08/23 02:30:16;;;;;;;3.47;2.13;;;21.40;99.90;;;;;;5048793;28;20188;-25
2023/08/23 02:32:46;;;;;;;4.43;2.20;;;21.40;99.90;;;;;;5049027;28;20215;-25
2023/08/23 02:35:15;;;;;;;4.03;1.92;;;21.30;99.90;;;;;;5032325;28;20760;-25
2023/08/23 02:37:42;;;;;;;2.60;1.90;;;21.30;99.90;;;;;;5066723;28;20196;-25
2023/08/23 02:40:13;;;;;;;2.88;2.00;;;21.30;99.90;;;;;;5049246;28;20678;-26
2023/08/23 02:42:40;;;;;;;3.58;2.03;;;21.30;99.90;;;;;;5048353;28;20594;-25
2023/08/23 02:45:08;;;;;;;3.28;2.40;;;21.30;99.90;;;;;;5031625;28;20259;-24
2023/08/23 02:47:37;;;;;;;2.22;1.80;;;21.30;99.90;;;;;;5064710;28;20761;-25
2023/08/23 02:50:09;;;;;;;3.03;1.92;;;21.20;99.90;;;;;;5066200;28;20256;-25
2023/08/23 02:52:39;;;;;;;2.88;1.98;;;21.20;99.90;;;;;;5066357;28;20688;-25
2023/08/23 02:55:11;;;;;;;3.65;2.22;;;21.20;99.90;;;;;;5048181;28;20227;-25
2023/08/23 02:57:40;;;;;;;4.50;2.00;;;21.10;99.90;;;;;;5066225;28;20229;-25
2023/08/23 03:00:08;;;;;;;2.35;1.90;;;21.10;99.90;;;;;;5048023;28;20734;-25
2023/08/23 03:02:35;;;;;;;3.55;1.90;;;21.10;99.90;;;;;;5064735;28;20227;-25
2023/08/23 03:05:02;;;;;;;4.43;1.90;;;21.00;99.90;;;;;;5048145;28;20246;-25
2023/08/23 03:07:29;;;;;;;4.35;2.17;;;21.00;99.90;;;;;;5066153;28;20199;-25
2023/08/23 03:09:59;;;;;;;2.42;1.85;;;21.00;99.90;;;;;;5048112;28;20260;-25
2023/08/23 03:12:26;;;;;;;2.90;2.10;;;21.00;99.90;;;;;;5048358;28;20203;-25
2023/08/23 03:14:58;;;;;;;4.70;1.80;;;20.90;99.90;;;;;;5048183;28;20222;-25
2023/08/23 03:17:25;;;;;;;4.97;2.33;;;20.90;99.90;;;;;;5066567;28;20215;-25
2023/08/23 03:19:59;;;;;;;4.55;2.20;;;20.90;99.90;;;;;;5048085;28;20249;-25
2023/08/23 03:22:29;;;;;;;3.53;1.95;;;20.90;99.90;;;;;;5048531;28;20645;-25
2023/08/23 03:24:59;;;;;;;2.75;1.90;;;20.90;99.90;;;;;;5066130;28;20287;-25
2023/08/23 03:27:26;;;;;;;2.67;2.00;;;20.80;99.90;;;;;;5047525;28;20202;-25
2023/08/23 03:29:54;;;;;;;1.77;1.65;;;20.80;99.90;;;;;;5065974;28;20208;-25
2023/08/23 03:32:23;;;;;;;3.08;1.92;;;20.80;99.90;;;;;;5048075;28;20578;-25
2023/08/23 03:34:52;;;;;;;3.15;2.05;;;20.80;99.90;;;;;;5048375;28;20210;-25
2023/08/23 03:37:20;;;;;;;3.05;1.80;;;20.80;99.90;;;;;;5031091;28;20681;-25
2023/08/23 03:39:47;;;;;;;2.60;1.77;;;20.80;99.90;;;;;;5047331;28;20223;-25
2023/08/23 03:42:22;;;;;;;2.20;1.67;;;20.70;99.90;;;;;;5065397;28;20220;-25
2023/08/23 03:44:49;;;;;;;2.30;1.80;;;20.70;99.90;;;;;;5047413;28;20227;-25
2023/08/23 03:47:17;;;;;;;3.53;1.98;;;20.70;99.90;;;;;;5047651;28;20720;-25
2023/08/23 03:49:44;;;;;;;4.93;2.10;;;20.60;99.90;;;;;;5031375;28;20633;-25
2023/08/23 03:52:14;;;;;;;4.60;1.90;;;20.60;99.90;;;;;;5065802;28;20681;-25
2023/08/23 03:54:43;;;;;;;4.72;2.30;;;20.60;99.90;;;;;;5065896;28;20200;-25
2023/08/23 03:57:13;;;;;;;4.22;2.10;;;20.60;99.90;;;;;;5065493;28;20199;-25
2023/08/23 03:59:43;;;;;;;5.10;1.88;;;20.60;99.90;;;;;;5065391;28;20208;-25
2023/08/23 04:02:10;;;;;;;2.45;1.70;;;20.60;99.90;;;;;;5047367;28;20265;-25
2023/08/23 04:04:37;;;;;;;3.78;1.90;;;20.60;99.90;;;;;;5047650;28;20273;-25
2023/08/23 04:07:13;;;;;;;4.43;2.13;;;20.50;99.90;;;;;;5048114;28;20216;-26
2023/08/23 04:09:43;;;;;;;4.18;1.70;;;20.60;99.90;;;;;;5031332;28;20681;-25
2023/08/23 04:12:12;;;;;;;6.43;1.80;;;20.50;99.90;;;;;;5065900;28;20720;-25
2023/08/23 04:14:39;;;;;;;3.47;1.80;;;20.50;99.90;;;;;;5065223;28;20284;-25
2023/08/23 04:17:07;;;;;;;3.42;1.80;;;20.50;99.90;;;;;;5065279;28;20294;-25
2023/08/23 04:19:34;;;;;;;2.72;1.60;;;20.40;99.90;;;;;;5030989;28;20207;-25
2023/08/23 04:22:02;;;;;;;3.92;1.60;;;20.40;99.90;;;;;;5047038;28;20245;-25
2023/08/23 04:24:32;;;;;;;4.78;1.95;;;20.30;99.90;;;;;;5065260;28;20223;-25
2023/08/23 04:27:03;;;;;;;3.75;1.90;;;20.30;99.90;;;;;;5068071;28;20612;-32
2023/08/23 04:29:34;;;;;;;3.78;1.70;;;20.30;99.90;;;;;;5035577;28;20207;-32
2023/08/23 04:32:01;;;;;;;5.22;2.42;;;20.20;99.90;;;;;;5068747;28;20242;-32
2023/08/23 04:34:30;;;;;;;7.68;1.80;;;20.30;99.90;;;;;;5068784;28;20332;-32
2023/08/23 04:37:00;;;;;;;2.72;1.95;;;20.20;99.90;;;;;;5069129;28;20222;-32
2023/08/23 04:39:29;;;;;;;3.25;2.00;;;20.20;99.90;;;;;;5050959;28;20204;-32
2023/08/23 04:41:56;;;;;;;2.85;1.80;;;20.10;99.90;;;;;;5034021;28;20219;-32
2023/08/23 04:44:27;;;;;;;6.00;2.17;;;20.10;99.90;;;;;;5050249;28;20330;-32
2023/08/23 04:46:58;;;;;;;4.90;2.47;;;20.10;99.90;;;;;;5050654;28;20218;-32
2023/08/23 04:49:27;;;;;;;4.50;2.80;;;20.10;99.90;;;;;;5050653;28;20200;-32
2023/08/23 04:51:54;;;;;;;6.18;2.40;;;20.10;99.90;;;;;;5068611;28;20218;-33
2023/08/23 04:54:24;;;;;;;4.47;2.05;;;20.10;99.90;;;;;;5050466;28;20226;-32
2023/08/23 04:56:51;;;;;;;6.03;2.35;;;20.10;99.90;;;;;;5068401;28;20211;-32
2023/08/23 04:59:18;;;;;;;8.02;2.40;;;20.10;99.90;;;;;;5050227;28;20212;-32
2023/08/23 05:01:48;;;;;;;7.20;2.47;;;20.00;99.90;;;;;;5050814;28;20203;-32
2023/08/23 05:04:17;;;;;;;10.20;2.95;;;20.00;99.90;;;;;;5068630;28;20352;-32
2023/08/23 05:06:44;;;;;;;6.50;2.97;;;20.00;99.90;;;;;;5068858;28;20211;-25
2023/08/23 05:09:11;;;;;;;5.13;3.00;;;20.00;99.90;;;;;;5050481;28;20219;-25
2023/08/23 05:11:41;;;;;;;4.93;2.45;;;20.00;99.90;;;;;;5050345;28;20257;-25
2023/08/23 05:14:10;;;;;;;6.32;3.13;;;20.10;99.90;;;;;;5051069;28;20203;-25
2023/08/23 05:16:38;;;;;;;9.45;2.60;;;20.00;99.90;;;;;;5068179;28;20211;-25
2023/08/23 05:19:10;;;;;;;5.10;2.30;;;20.00;99.90;;;;;;5050323;28;20204;-25
2023/08/23 05:21:37;;;;;;;5.63;2.28;;;20.00;99.90;;;;;;5050837;28;20579;-25
2023/08/23 05:24:04;;;;;;;6.45;2.63;;;20.10;99.90;;;;;;5068012;28;20238;-25
2023/08/23 05:26:32;;;;;;;8.32;2.90;;;20.00;99.90;;;;;;5049612;28;20219;-26
2023/08/23 05:29:04;;;;;;;8.88;3.17;;;20.00;99.90;;;;;;5067923;28;20256;-25
2023/08/23 05:31:31;;;;;;;10.65;3.35;;;20.00;99.90;;;;;;5067781;28;20199;-25
2023/08/23 05:33:58;;;;;;;11.07;3.45;;;20.10;99.90;;;;;;5067808;28;20215;-25
2023/08/23 05:36:25;;;;;;;5.82;2.33;;;20.00;99.90;;;;;;5066992;28;20701;-25
2023/08/23 05:38:55;;;;;;;5.80;2.85;;;20.00;99.90;;;;;;5067731;28;20207;-25
2023/08/23 05:41:24;;;;;;;6.55;2.50;;;20.10;99.90;;;;;;5050192;28;20200;-25
2023/08/23 05:43:54;;;;;;;6.60;2.67;;;20.10;99.90;;;;;;5066298;28;20681;-25
2023/08/23 05:46:23;;;;;;;4.68;2.80;;;20.10;99.90;;;;;;5049848;28;20614;-25
2023/08/23 05:48:52;;;;;;;4.35;2.70;;;20.10;99.90;;;;;;5049529;28;20226;-32
2023/08/23 05:51:22;;;;;;;6.30;2.97;;;20.10;99.90;;;;;;5049402;28;20838;-32
2023/08/23 05:53:54;;;;;;;6.57;2.50;;;20.20;99.90;;;;;;5049446;28;20673;-32
2023/08/23 05:56:26;;;;;;;4.82;2.50;;;20.20;99.90;;;;;;5068011;28;20574;-32
2023/08/23 05:58:55;;;;;;;6.75;2.60;;;20.20;99.90;;;;;;5049933;28;20754;-32
2023/08/23 06:01:27;;;;;;;5.40;2.58;;;20.20;99.90;;;;;;5067271;28;20206;-32
2023/08/23 06:03:54;;;;;;;5.70;2.70;;;20.20;99.90;;;;;;5067227;28;20254;-32
2023/08/23 06:06:21;;;;;;;6.95;3.45;;;20.20;99.90;;;;;;5067063;28;20760;-32
2023/08/23 06:08:51;;;;;;;5.50;2.72;;;20.20;99.90;;;;;;5049198;28;20207;-32
2023/08/23 06:11:21;;;;;;;6.65;2.97;;;20.20;99.90;;;;;;5049003;28;20203;-32
2023/08/23 06:13:50;;;;;;;6.57;2.75;;;20.20;99.90;;;;;;5066768;28;20220;-32
2023/08/23 06:16:17;;;;;;;5.53;2.90;;;20.20;99.90;;;;;;5048999;28;20662;-32
2023/08/23 06:18:47;;;;;;;4.70;2.95;;;20.30;99.90;;;;;;5049138;28;20286;-32
2023/08/23 06:21:14;;;;;;;11.18;3.63;;;20.30;99.90;;;;;;5049000;28;20272;-32
2023/08/23 06:23:44;;;;;;;13.70;4.10;;;20.30;99.90;;;;;;5067301;28;20719;-32
2023/08/23 06:26:13;;;;;;;5.20;3.08;;;20.40;99.90;;;;;;5066580;28;20528;-32
2023/08/23 06:28:41;;;;;;;14.13;3.65;;;20.40;99.90;;;;;;5066684;28;20194;-32
2023/08/23 06:31:17;;;;;;;10.07;3.40;;;20.40;99.90;;;;;;5048432;28;20281;-32
2023/08/23 06:33:46;;;;;;;10.60;3.40;;;20.50;99.90;;;;;;5064997;28;20745;-32
2023/08/23 06:36:13;;;;;;;7.22;3.58;;;20.50;99.90;;;;;;5066513;28;20600;-32
2023/08/23 06:38:47;;;;;;;7.65;3.45;;;20.60;99.90;;;;;;5031969;28;20211;-32
2023/08/23 06:41:17;;;;;;;8.43;3.78;;;20.60;99.90;;;;;;5066158;28;20218;-33
2023/08/23 06:43:46;;;;;;;9.32;3.80;;;20.70;99.90;;;;;;5047999;28;20277;-32
2023/08/23 06:46:14;;;;;;;11.98;3.97;;;20.70;99.90;;;;;;5066433;28;20285;-33
2023/08/23 06:48:44;;;;;;;9.20;3.97;;;20.70;99.90;;;;;;5065745;28;20200;-32
2023/08/23 06:51:13;;;;;;;12.40;3.58;;;20.80;99.90;;;;;;5066427;28;20619;-33
2023/08/23 06:53:45;;;;;;;9.82;4.13;;;20.80;99.90;;;;;;5066456;28;20579;-26
2023/08/23 06:56:17;;;;;;;9.38;3.83;;;20.90;99.90;;;;;;5048478;28;20195;-26
2023/08/23 06:58:44;;;;;;;10.57;3.80;;;20.90;99.90;;;;;;5048530;28;20634;-28
2023/08/23 07:01:14;;;;;;;8.20;3.78;;;20.90;99.90;;;;;;5048319;28;20273;-25
2023/08/23 07:03:46;;;;;;;8.30;3.80;;;21.00;99.90;;;;;;5048529;28;20230;-25
2023/08/23 07:06:15;;;;;;;5.65;3.45;;;21.10;99.90;;;;;;5066372;28;20195;-26
2023/08/23 07:08:43;;;;;;;7.32;3.55;;;21.10;99.90;;;;;;5048195;28;20218;-27
2023/08/23 07:11:12;;;;;;;6.30;2.95;;;21.20;99.90;;;;;;5048219;28;20203;-26
2023/08/23 07:13:42;;;;;;;4.13;2.58;;;21.20;99.90;;;;;;5047867;28;20204;-26
2023/08/23 07:16:14;;;;;;;5.30;3.03;;;21.30;99.90;;;;;;5048274;28;20211;-26
2023/08/23 07:18:44;;;;;;;3.95;3.00;;;21.40;99.90;;;;;;5064651;28;20207;-26
2023/08/23 07:21:11;;;;;;;6.32;2.90;;;21.40;99.90;;;;;;5065816;28;20313;-26
2023/08/23 07:23:38;;;;;;;5.38;3.00;;;21.40;99.90;;;;;;5047596;28;20223;-26
2023/08/23 07:26:10;;;;;;;4.40;2.70;;;21.50;99.90;;;;;;5065769;28;20286;-26
2023/08/23 07:28:38;;;;;;;6.20;3.00;;;21.60;99.90;;;;;;5047450;28;20204;-26
2023/08/23 07:31:05;;;;;;;5.43;2.92;;;21.60;99.90;;;;;;5031239;28;20208;-26
2023/08/23 07:33:33;;;;;;;8.02;2.90;;;21.70;99.90;;;;;;5065531;28;20588;-26
2023/08/23 07:36:01;;;;;;;6.80;3.33;;;21.70;99.90;;;;;;5048177;28;20195;-26
2023/08/23 07:38:32;;;;;;;7.32;3.00;;;21.80;99.90;;;;;;5047674;28;20580;-26
2023/08/23 07:41:02;;;;;;;5.35;2.55;;;21.80;99.90;;;;;;5047798;28;20211;-26
2023/08/23 07:43:34;;;;;;;4.43;2.80;;;21.80;99.90;;;;;;5063780;28;20581;-26
2023/08/23 07:46:03;;;;;;;4.40;2.58;;;21.90;99.90;;;;;;5047621;28;20774;-33
2023/08/23 07:48:30;;;;;;;5.75;3.28;;;22.00;99.90;;;;;;5065412;28;20571;-34
2023/08/23 07:51:00;;;;;;;6.07;3.05;;;22.00;99.90;;;;;;5065386;28;20628;-33
2023/08/23 07:53:29;;;;;;;4.65;2.97;;;22.10;99.90;;;;;;5065368;28;20693;-33
2023/08/23 07:56:01;;;;;;;7.00;3.00;;;22.10;99.90;;;;;;5063760;28;20795;-33
2023/08/23 07:58:32;;;;;;;4.53;2.28;;;22.20;99.90;;;;;;5065218;28;20234;-33
2023/08/23 08:01:00;;;;;;;4.75;2.40;;;22.20;99.90;;;;;;5050284;28;20238;-33
2023/08/23 08:03:28;;;;;;;4.20;2.65;;;22.30;99.90;;;;;;5069261;28;20224;-33
2023/08/23 08:05:59;;;;;;;5.35;2.58;;;22.30;99.90;;;;;;5069449;28;20207;-33
2023/08/23 08:08:29;;;;;;;4.10;2.22;;;22.30;99.90;;;;;;5052130;28;20199;-33
2023/08/23 08:11:00;;;;;;;3.90;2.45;;;22.40;99.90;;;;;;5069353;28;20215;-33
2023/08/23 08:13:30;;;;;;;4.90;2.67;;;22.40;99.90;;;;;;5051524;28;20749;-33
2023/08/23 08:15:59;;;;;;;3.92;3.00;;;22.50;99.90;;;;;;5051001;28;20261;-33
2023/08/23 08:18:31;;;;;;;3.85;1.90;;;22.50;99.90;;;;;;5068982;28;20239;-33
2023/08/23 08:20:59;;;;;;;5.32;2.55;;;22.50;99.90;;;;;;5051354;28;20215;-32
2023/08/23 08:23:29;;;;;;;7.32;2.53;;;22.60;99.90;;;;;;5034654;28;20792;-32
2023/08/23 08:25:59;;;;;;;6.63;2.53;;;22.60;99.90;;;;;;5051149;28;20215;-32
2023/08/23 08:28:27;;;;;;;4.32;2.20;;;22.70;99.90;;;;;;5050971;28;20207;-33
2023/08/23 08:30:54;;;;;;;4.40;2.30;;;22.70;99.90;;;;;;5068734;28;20195;-32
2023/08/23 08:33:23;;;;;;;5.95;2.67;;;22.70;99.90;;;;;;5050817;28;20716;-32
2023/08/23 08:35:52;;;;;;;5.85;2.50;;;22.80;99.90;;;;;;5068823;28;20614;-33
2023/08/23 08:38:22;;;;;;;6.00;2.50;;;22.80;99.90;;;;;;5068628;28;20231;-32
2023/08/23 08:40:52;;;;;;;5.35;2.30;;;22.90;99.90;;;;;;5068568;28;20686;-25
2023/08/23 08:43:25;;;;;;;6.55;2.85;;;22.90;99.90;;;;;;5051086;28;20196;-26
2023/08/23 08:45:54;;;;;;;6.43;2.90;;;23.00;99.90;;;;;;5067095;28;20652;-25
2023/08/23 08:48:22;;;;;;;5.68;2.78;;;23.00;99.90;;;;;;5067580;28;20227;-25
2023/08/23 08:50:49;;;;;;;8.20;3.75;;;23.10;99.90;;;;;;5051011;28;20269;-25
2023/08/23 08:53:22;;;;;;;6.55;3.40;;;23.10;99.90;;;;;;5050484;28;20216;-25
2023/08/23 08:55:57;;;;;;;6.13;3.17;;;23.20;99.90;;;;;;5050446;28;20308;-25
2023/08/23 08:58:25;;;;;;;7.38;3.97;;;23.20;99.90;;;;;;5068239;28;20277;-25
2023/08/23 09:00:59;;;;;;;5.60;2.85;;;23.20;99.90;;;;;;5066952;28;20673;-25
2023/08/23 09:03:29;;;;;;;5.63;3.03;;;23.30;99.90;;;;;;5050373;28;20203;-25
2023/08/23 09:05:57;;;;;;;4.40;2.38;;;23.30;99.90;;;;;;5033768;28;20212;-25
2023/08/23 09:08:25;;;;;;;7.13;2.28;;;23.40;99.90;;;;;;5033556;28;20637;-25
2023/08/23 09:10:52;;;;;;;5.53;2.40;;;23.40;99.90;;;;;;5067865;28;20195;-25
2023/08/23 09:13:19;;;;;;;3.85;2.13;;;23.50;99.90;;;;;;5067169;28;20249;-25
2023/08/23 09:15:47;;;;;;;5.13;2.92;;;23.50;99.90;;;;;;5050324;28;20296;-25
2023/08/23 09:18:19;;;;;;;3.78;2.42;;;23.50;99.90;;;;;;5066475;28;20203;-25
2023/08/23 09:20:49;;;;;;;5.13;2.40;;;23.60;99.90;;;;;;5033389;28;20216;-25
2023/08/23 09:23:18;;;;;;;4.43;2.17;;;23.60;99.90;;;;;;5066706;28;20204;-25
2023/08/23 09:25:48;;;;;;;4.13;2.58;;;23.70;99.90;;;;;;5068095;28;20224;-25
2023/08/23 09:28:15;;;;;;;5.95;2.33;;;23.70;99.90;;;;;;5067570;28;20226;-25
2023/08/23 09:30:47;;;;;;;3.33;2.00;;;23.80;99.90;;;;;;5049330;28;20792;-25
2023/08/23 09:33:14;;;;;;;3.70;1.85;;;23.80;99.90;;;;;;5067745;28;20677;-24
2023/08/23 09:35:50;;;;;;;6.10;2.00;;;23.80;99.90;;;;;;5049955;28;20201;-25
2023/08/23 09:38:19;;;;;;;6.68;2.70;;;23.90;99.90;;;;;;5067636;28;20223;-30
2023/08/23 09:40:50;;;;;;;4.40;2.13;;;23.90;99.90;;;;;;5049657;28;20243;-25
2023/08/23 09:43:21;;;;;;;4.80;2.20;;;24.00;99.90;;;;;;5067547;28;20208;-25
2023/08/23 09:45:49;;;;;;;4.40;2.40;;;24.00;99.90;;;;;;5033176;28;20776;-25
2023/08/23 09:48:20;;;;;;;2.58;1.70;;;24.00;99.90;;;;;;5065866;28;20676;-25
2023/08/23 09:50:54;;;;;;;4.15;2.17;;;24.00;99.90;;;;;;5065623;28;20295;-25
2023/08/23 09:53:22;;;;;;;4.82;2.30;;;24.10;99.90;;;;;;5049220;28;20592;-25
2023/08/23 09:55:51;;;;;;;4.85;2.17;;;24.10;99.90;;;;;;5067206;28;20207;-26
2023/08/23 09:58:24;;;;;;;3.80;2.38;;;24.20;99.90;;;;;;5049488;28;20286;-25
2023/08/23 10:00:57;;;;;;;5.10;2.20;;;24.20;99.90;;;;;;5034294;28;20269;-25
2023/08/23 10:03:27;;;;;;;3.75;2.00;;;24.30;99.90;;;;;;5067053;28;20199;-25
2023/08/23 10:05:54;;;;;;;3.83;1.83;;;24.30;99.90;;;;;;5032107;28;20241;-25
2023/08/23 10:08:23;;;;;;;3.42;2.15;;;24.40;99.90;;;;;;5066674;28;20196;-25
2023/08/23 10:10:54;;;;;;;4.53;1.52;;;24.40;99.90;;;;;;5048253;28;20187;-25
2023/08/23 10:13:23;;;;;;;3.33;1.95;;;24.50;99.90;;;;;;5066792;28;20562;-25
2023/08/23 10:15:57;;;;;;;3.75;2.03;;;24.50;99.90;;;;;;5066945;28;20223;-25
2023/08/23 10:18:25;;;;;;;7.15;2.20;;;24.60;99.90;;;;;;5048558;28;20200;-24
2023/08/23 10:20:54;;;;;;;3.25;1.90;;;24.60;99.90;;;;;;5066711;28;20211;-25
2023/08/23 10:23:25;;;;;;;3.85;1.70;;;24.70;99.90;;;;;;5066194;28;20216;-26
2023/08/23 10:25:57;;;;;;;4.43;1.83;;;24.70;99.90;;;;;;5064631;28;20227;-26
2023/08/23 10:28:27;;;;;;;6.43;2.20;;;24.70;99.90;;;;;;5066354;28;20204;-25
2023/08/23 10:30:59;;;;;;;4.65;2.00;;;24.80;99.90;;;;;;5066099;28;20212;-25
2023/08/23 10:33:52;;;;;;;3.78;2.00;;;24.90;99.90;;;;;;5066126;28;20203;-33
2023/08/23 10:36:27;;;;;;;6.25;2.67;;;24.90;99.90;;;;;;5048324;28;20296;-33
2023/08/23 10:38:58;;;;;;;5.40;2.20;;;25.00;99.90;;;;;;5066150;28;20282;-33
2023/08/23 10:41:26;;;;;;;4.82;2.10;;;25.00;99.90;;;;;;5031645;28;20702;-33
2023/08/23 10:43:54;;;;;;;3.90;2.05;;;25.10;99.90;;;;;;5065654;28;20191;-33
2023/08/23 10:46:30;;;;;;;5.95;2.50;;;25.10;99.90;;;;;;5065824;28;20195;-33
2023/08/23 10:49:01;;;;;;;4.35;2.25;;;25.20;99.90;;;;;;5064151;28;20644;-33
2023/08/23 10:51:31;;;;;;;6.07;2.60;;;25.20;99.90;;;;;;5047768;28;20685;-33
2023/08/23 10:54:05;;;;;;;4.00;2.35;;;25.20;99.90;;;;;;5047460;28;20195;-33
2023/08/23 10:56:34;;;;;;;6.15;2.42;;;25.30;99.90;;;;;;5065482;28;20200;-33
2023/08/23 10:59:02;;;;;;;7.43;2.58;;;25.30;99.90;;;;;;5047378;28;20652;-33
2023/08/23 11:01:29;;;;;;;7.28;3.10;;;25.30;99.90;;;;;;5065336;28;20574;-32
2023/08/23 11:03:59;;;;;;;5.35;2.40;;;25.40;99.90;;;;;;5065785;28;20286;-33
2023/08/23 11:06:30;;;;;;;9.55;2.95;;;25.40;99.90;;;;;;5031545;28;20268;-33
2023/08/23 11:09:00;;;;;;;7.18;2.53;;;25.40;99.90;;;;;;5066013;28;20214;-33
2023/08/23 11:11:28;;;;;;;5.93;2.63;;;25.50;99.90;;;;;;5065568;28;20212;-33
2023/08/23 11:13:56;;;;;;;5.35;2.85;;;25.50;99.90;;;;;;5064753;28;20846;-33
2023/08/23 11:16:24;;;;;;;6.20;2.30;;;25.50;99.90;;;;;;5047577;28;20215;-33
2023/08/23 11:18:52;;;;;;;3.75;2.15;;;25.60;99.90;;;;;;5047141;28;20278;-33
2023/08/23 11:21:19;;;;;;;4.90;2.40;;;25.60;99.90;;;;;;5047124;28;20199;-33
2023/08/23 11:23:47;;;;;;;6.60;2.45;;;25.70;99.90;;;;;;5047590;28;20261;-33
2023/08/23 11:26:16;;;;;;;5.45;2.10;;;25.70;99.90;;;;;;5031106;28;20242;-33
2023/08/23 11:28:47;;;;;;;6.28;2.45;;;25.80;99.90;;;;;;5065229;28;20199;-33
2023/08/23 11:31:14;;;;;;;4.47;2.10;;;25.80;99.90;;;;;;5047063;28;20200;-33
2023/08/23 11:33:41;;;;;;;3.67;2.03;;;25.90;99.90;;;;;;5047277;28;20547;-32
2023/08/23 11:36:11;;;;;;;4.20;2.13;;;25.90;99.90;;;;;;5064698;28;20200;-33
2023/08/23 11:38:42;;;;;;;5.13;2.90;;;26.00;99.90;;;;;;5047866;28;20501;-33
2023/08/23 11:41:12;;;;;;;5.30;2.42;;;26.00;99.90;;;;;;5047175;28;20242;-33
2023/08/23 11:43:45;;;;;;;5.05;2.70;;;26.00;99.90;;;;;;5065157;28;20705;-31
2023/08/23 11:46:12;;;;;;;4.28;2.53;;;26.00;99.90;;;;;;5047260;28;20239;-32
2023/08/23 11:48:39;;;;;;;5.53;2.78;;;26.00;99.90;;;;;;5048428;28;20192;-25
2023/08/23 11:51:10;;;;;;;5.57;2.85;;;26.10;99.90;;;;;;5047395;28;20265;-25
2023/08/23 11:53:49;;;;;;;5.22;2.60;;;26.10;99.90;;;;;;5065829;28;20604;-25
2023/08/23 11:56:18;;;;;;;2.80;2.10;;;26.10;99.90;;;;;;5063637;28;20195;-26
2023/08/23 11:58:48;;;;;;;5.15;2.50;;;26.10;99.90;;;;;;5065330;28;20215;-25
2023/08/23 12:01:18;;;;;;;6.18;2.85;;;26.20;99.90;;;;;;5047270;28;20688;-25
2023/08/23 12:03:46;;;;;;;4.18;2.15;;;26.20;99.90;;;;;;5030626;28;20286;-25
2023/08/23 12:06:16;;;;;;;5.43;2.28;;;26.20;99.90;;;;;;5046822;28;20227;-25
2023/08/23 12:08:43;;;;;;;4.32;2.20;;;26.30;99.90;;;;;;5047152;28;20633;-25
2023/08/23 12:11:10;;;;;;;3.53;1.85;;;26.30;99.90;;;;;;5046941;28;20195;-24
2023/08/23 12:13:43;;;;;;;2.97;2.08;;;26.30;99.90;;;;;;5047174;28;20211;-25
2023/08/23 12:16:12;;;;;;;3.05;1.75;;;26.30;99.90;;;;;;5046674;28;20211;-25
2023/08/23 12:18:42;;;;;;;3.92;1.90;;;26.30;99.90;;;;;;5065024;28;20207;-25
2023/08/23 12:21:09;;;;;;;4.80;2.30;;;26.40;99.90;;;;;;5047303;28;20196;-32
2023/08/23 12:23:36;;;;;;;4.85;2.60;;;26.40;99.90;;;;;;5046992;28;20207;-32
2023/08/23 12:26:05;;;;;;;3.25;1.85;;;26.40;99.90;;;;;;5047483;28;20608;-32
2023/08/23 12:28:37;;;;;;;2.60;1.60;;;26.40;99.90;;;;;;5065332;28;20287;-33
2023/08/23 12:31:10;;;;;;;3.75;1.52;;;26.50;99.90;;;;;;5046673;28;20927;-32
2023/08/23 12:33:39;;;;;;;1.65;1.20;;;26.50;99.90;;;;;;5046862;28;20286;-33
2023/08/23 12:36:07;;;;;;;1.60;1.00;;;26.50;99.90;;;;;;5065017;28;20701;-32
2023/08/23 12:38:37;;;;;;;3.28;1.50;;;26.50;99.90;;;;;;5065062;28;20238;-32
2023/08/23 12:41:04;;;;;;;2.42;1.30;;;26.60;99.90;;;;;;5046899;28;20226;-33
2023/08/23 12:43:33;;;;;;;1.98;1.30;;;26.60;99.90;;;;;;5046014;28;20213;-32
2023/08/23 12:46:03;;;;;;;1.40;1.20;;;26.60;99.90;;;;;;5064705;28;20244;-32
2023/08/23 12:48:30;;;;;;;4.35;1.20;;;26.70;99.90;;;;;;5068095;28;20286;-32
2023/08/23 12:50:58;;;;;;;2.47;1.45;;;26.70;99.90;;;;;;5068220;28;20195;-33
2023/08/23 12:53:27;;;;;;;3.35;1.23;;;26.70;99.90;;;;;;5034173;28;20226;-33
2023/08/23 12:55:54;;;;;;;5.38;1.48;;;26.80;99.90;;;;;;5050334;28;20669;-33
2023/08/23 12:58:23;;;;;;;1.95;1.10;;;26.80;99.90;;;;;;5050710;28;20249;-33